Time;durP1;ratioP1;P1;durP2;ratioP2;P2;SDS_P1;SDS_P2;PMS_P1;PMS_P2;Temp;Humidity;BMP_temperature;BMP_pressure;BME280_temperature;BME280_humidity;BME280_pressure;Samples;Min_cycle;Max_cycle;Signal;HPM_P1;HPM_P2
2021/03/01 00:02:32;;;;;;;11.68;9.83;;;;;;;3.54;80.10;101510.20;251704;1105;116436;-65
2021/03/01 00:07:37;;;;;;;16.02;9.98;;;;;;;3.51;80.12;101507.85;252025;1105;114618;-64
2021/03/01 00:12:42;;;;;;;19.07;13.50;;;;;;;3.52;80.14;101512.15;253353;1104;115441;-67
2021/03/01 00:17:45;;;;;;;12.00;8.88;;;;;;;3.54;80.81;101514.64;253166;1104;115177;-66
2021/03/01 00:22:48;;;;;;;13.95;9.98;;;;;;;3.48;80.49;101510.77;251597;1105;114695;-67
2021/03/01 00:27:52;;;;;;;13.55;9.48;;;;;;;3.55;79.12;101521.58;253529;1105;119347;-64
2021/03/01 00:32:55;;;;;;;17.07;10.23;;;;;;;3.57;80.25;101525.73;253038;1104;115412;-64
2021/03/01 00:37:59;;;;;;;11.78;8.78;;;;;;;3.52;79.65;101527.14;254546;1105;116174;-63
2021/03/01 00:43:03;;;;;;;8.83;6.85;;;;;;;3.50;78.89;101540.46;254716;1104;114578;-65
2021/03/01 00:48:06;;;;;;;12.05;7.60;;;;;;;3.50;79.93;101551.01;254876;1105;114818;-64
2021/03/01 00:53:10;;;;;;;12.47;10.53;;;;;;;3.56;79.45;101550.44;254519;1105;115371;-63
2021/03/01 00:58:13;;;;;;;12.47;9.30;;;;;;;3.55;79.83;101554.05;254950;1104;115385;-66
2021/03/01 01:03:19;;;;;;;11.83;8.23;;;;;;;3.52;79.96;101559.61;253997;1105;115495;-65
2021/03/01 01:08:23;;;;;;;9.87;7.83;;;;;;;3.49;80.31;101551.16;251641;1105;114729;-65
2021/03/01 01:13:27;;;;;;;14.30;9.80;;;;;;;3.59;79.92;101552.78;252763;1105;115426;-66
2021/03/01 01:18:30;;;;;;;14.87;9.93;;;;;;;3.60;79.24;101551.81;252566;1104;115923;-67
2021/03/01 01:23:34;;;;;;;15.10;10.30;;;;;;;3.59;79.45;101554.59;252062;1105;115176;-65
2021/03/01 01:28:38;;;;;;;12.45;9.70;;;;;;;3.49;79.38;101561.70;251953;1105;115840;-68
2021/03/01 01:33:41;;;;;;;13.18;10.13;;;;;;;3.42;79.95;101555.33;251461;1105;115424;-67
2021/03/01 01:38:44;;;;;;;15.98;9.40;;;;;;;3.42;80.19;101558.80;251104;1105;115456;-64
2021/03/01 01:43:48;;;;;;;13.93;8.75;;;;;;;3.36;79.80;101565.47;252117;1104;115456;-67
2021/03/01 01:48:51;;;;;;;16.27;8.80;;;;;;;3.34;80.76;101553.44;252437;1105;114746;-65
2021/03/01 01:53:54;;;;;;;27.13;11.57;;;;;;;3.31;80.80;101545.81;251853;1105;115565;-66
2021/03/01 01:58:59;;;;;;;14.93;9.45;;;;;;;3.35;80.21;101553.30;252134;1105;115353;-69
2021/03/01 02:04:06;;;;;;;16.50;11.88;;;;;;;3.33;80.87;101559.69;251934;1105;116110;-67
2021/03/01 02:09:19;;;;;;;20.55;10.82;;;;;;;3.30;79.89;101563.44;252365;1104;116593;-65
2021/03/01 02:14:57;;;;;;;17.25;11.35;;;;;;;3.27;80.80;101554.98;253271;1105;117941;-64
2021/03/01 02:20:01;;;;;;;14.50;9.75;;;;;;;3.34;80.79;101556.08;252205;1105;116476;-65
2021/03/01 02:25:09;;;;;;;15.70;10.65;;;;;;;3.35;80.45;101555.10;251866;1105;116288;-65
2021/03/01 02:30:29;;;;;;;17.83;13.50;;;;;;;3.31;80.68;101561.63;251915;1105;116112;-65
2021/03/01 02:35:34;;;;;;;16.35;11.35;;;;;;;3.26;80.79;101559.42;252754;1104;115820;-65
2021/03/01 02:40:41;;;;;;;16.62;9.60;;;;;;;3.20;80.96;101561.78;253776;1105;116932;-64
2021/03/01 02:45:46;;;;;;;15.88;10.65;;;;;;;3.14;81.10;101560.55;254636;1104;115413;-64
2021/03/01 02:50:53;;;;;;;17.35;11.50;;;;;;;3.22;80.76;101565.11;254615;1104;115410;-65
2021/03/01 02:55:58;;;;;;;18.90;11.38;;;;;;;3.24;80.50;101560.53;254827;1105;116103;-64
2021/03/01 03:01:04;;;;;;;14.35;9.05;;;;;;;3.25;80.26;101572.73;254262;1104;115095;-65
2021/03/01 03:06:17;;;;;;;13.18;9.00;;;;;;;3.17;80.04;101564.70;254796;1105;115483;-64
2021/03/01 03:11:25;;;;;;;9.73;8.58;;;;;;;3.12;80.43;101569.56;254600;1104;114845;-64
2021/03/01 03:16:29;;;;;;;22.40;10.35;;;;;;;3.09;80.76;101575.94;252302;1105;116885;-66
2021/03/01 03:21:32;;;;;;;12.88;9.80;;;;;;;2.96;81.83;101588.59;252215;1105;116539;-66
2021/03/01 03:26:36;;;;;;;18.25;11.65;;;;;;;3.05;80.55;101595.66;252477;1104;116186;-66
2021/03/01 03:31:41;;;;;;;15.90;9.70;;;;;;;2.97;81.01;101590.25;251864;1105;117666;-65
2021/03/01 03:36:53;;;;;;;14.98;9.48;;;;;;;2.99;81.20;101589.15;251701;1105;118009;-65
2021/03/01 03:41:58;;;;;;;18.42;10.55;;;;;;;2.95;82.18;101594.83;251832;1104;115564;-68
2021/03/01 03:47:08;;;;;;;20.60;12.88;;;;;;;3.00;82.01;101596.08;251720;1103;115689;-66
2021/03/01 03:52:15;;;;;;;21.27;13.13;;;;;;;3.04;82.21;101597.47;252126;1105;115932;-67
2021/03/01 03:57:25;;;;;;;15.40;9.58;;;;;;;3.03;81.59;101595.80;251458;1105;116350;-69
2021/03/01 04:02:30;;;;;;;14.85;10.58;;;;;;;3.03;81.12;101600.24;251428;1105;116132;-68
2021/03/01 04:07:36;;;;;;;16.17;10.50;;;;;;;2.97;81.90;101601.62;251822;1105;117500;-68
2021/03/01 04:12:46;;;;;;;16.35;11.70;;;;;;;2.99;82.64;101593.59;251767;1105;118684;-68
2021/03/01 04:17:51;;;;;;;14.28;9.25;;;;;;;3.02;81.01;101591.50;252841;1104;116153;-70
2021/03/01 04:22:57;;;;;;;14.83;10.85;;;;;;;3.04;82.18;101597.47;251559;1105;118084;-70
2021/03/01 04:28:02;;;;;;;16.73;11.33;;;;;;;3.03;81.14;101601.07;251681;1105;116666;-70
2021/03/01 04:33:10;;;;;;;22.48;11.48;;;;;;;3.06;81.93;101599.93;252251;1105;115958;-70
2021/03/01 04:38:14;;;;;;;16.67;11.60;;;;;;;3.06;81.75;101601.77;252484;1104;115532;-70
2021/03/01 04:43:20;;;;;;;17.35;11.38;;;;;;;3.08;81.57;101605.89;253073;1105;117887;-70
2021/03/01 04:48:26;;;;;;;;;;;;;;;2.96;82.58;101602.59;253172;1105;118420;-70
2021/03/01 04:53:34;;;;;;;22.42;14.43;;;;;;;2.92;81.43;101606.48;252552;1105;104156;-70
2021/03/01 04:58:40;;;;;;;21.93;13.88;;;;;;;2.99;81.35;101610.22;255213;1105;116965;-70
2021/03/01 05:03:45;;;;;;;21.48;12.05;;;;;;;2.99;81.98;101615.49;252340;1105;117246;-70
2021/03/01 05:08:50;;;;;;;24.12;13.68;;;;;;;3.00;82.09;101613.69;253421;1104;116928;-70
2021/03/01 05:13:54;;;;;;;20.57;12.50;;;;;;;2.98;81.45;101613.83;252138;1105;118484;-70
2021/03/01 05:18:58;;;;;;;19.85;14.20;;;;;;;3.01;82.68;101612.72;251728;1105;117278;-69
2021/03/01 05:24:02;;;;;;;22.98;12.28;;;;;;;3.07;81.88;101609.50;251708;1105;118217;-68
2021/03/01 05:29:08;;;;;;;19.98;12.55;;;;;;;3.07;81.81;101614.77;251686;1105;117320;-68
2021/03/01 05:34:13;;;;;;;21.15;12.25;;;;;;;3.02;82.40;101625.75;252677;1104;117234;-68
2021/03/01 05:39:17;;;;;;;28.12;12.82;;;;;;;3.01;81.17;101629.36;253258;1104;115782;-68
2021/03/01 05:44:20;;;;;;;21.40;14.47;;;;;;;3.06;82.21;101625.48;252852;1105;115369;-69
2021/03/01 05:49:24;;;;;;;20.80;14.30;;;;;;;3.11;81.54;101639.87;252603;1105;115318;-70
2021/03/01 05:54:35;;;;;;;18.07;11.70;;;;;;;3.14;81.76;101644.03;251951;1105;115223;-67
2021/03/01 05:59:40;;;;;;;27.62;15.25;;;;;;;3.13;82.22;101642.37;251443;1105;115483;-69
2021/03/01 06:04:45;;;;;;;25.92;14.60;;;;;;;3.16;81.84;101655.27;251585;1105;118077;-67
2021/03/01 06:09:48;;;;;;;23.77;13.48;;;;;;;3.20;81.73;101669.83;251655;1105;117989;-68
2021/03/01 06:14:55;;;;;;;19.17;14.40;;;;;;;3.21;80.91;101674.13;251493;1105;116800;-69
2021/03/01 06:19:59;;;;;;;30.05;19.23;;;;;;;3.22;81.90;101673.99;253125;1105;116650;-68
2021/03/01 06:25:05;;;;;;;32.35;15.53;;;;;;;3.28;81.02;101689.26;251689;1105;118569;-68
2021/03/01 06:30:13;;;;;;;23.33;13.50;;;;;;;3.31;80.54;101683.71;251393;1105;117205;-69
2021/03/01 06:35:30;;;;;;;28.42;13.90;;;;;;;3.27;80.75;101695.50;252089;1105;116870;-67
2021/03/01 06:40:34;;;;;;;20.75;11.95;;;;;;;3.18;81.83;101698.13;251596;1105;117145;-68
2021/03/01 06:45:37;;;;;;;25.32;13.78;;;;;;;3.23;81.17;101706.45;252026;1105;116744;-68
2021/03/01 06:50:44;;;;;;;22.35;12.70;;;;;;;3.32;80.74;101705.63;252472;1104;115740;-67
2021/03/01 06:55:58;;;;;;;21.20;12.03;;;;;;;3.32;80.36;101709.09;252517;1104;116086;-66
2021/03/01 07:01:05;;;;;;;19.95;11.30;;;;;;;3.31;80.12;101701.33;254643;1105;114925;-66
2021/03/01 07:06:09;;;;;;;;;;;;;;;3.38;80.34;101705.05;252476;1105;116083;-66
2021/03/01 07:11:34;;;;;;;16.62;11.05;;;;;;;3.49;80.42;101704.08;255469;1105;102709;-66
2021/03/01 07:16:47;;;;;;;25.00;13.20;;;;;;;3.55;80.23;101703.52;254539;1105;117095;-65
2021/03/01 07:21:58;;;;;;;34.30;15.75;;;;;;;3.56;80.40;101706.02;254751;1105;115437;-65
2021/03/01 07:27:04;;;;;;;17.10;10.53;;;;;;;3.51;80.12;101716.15;253892;1105;116521;-65
2021/03/01 07:32:09;;;;;;;22.32;11.15;;;;;;;3.67;80.11;101731.38;254839;1104;138919;-65
2021/03/01 07:37:14;;;;;;;19.50;11.10;;;;;;;3.77;79.97;101731.38;252775;1105;116818;-67
2021/03/01 07:42:21;;;;;;;17.00;9.45;;;;;;;3.76;79.62;101721.80;254100;1105;115907;-65
2021/03/01 07:47:30;;;;;;;15.83;9.80;;;;;;;3.72;78.97;101722.08;252580;1105;115664;-67
2021/03/01 07:52:36;;;;;;;19.50;9.70;;;;;;;3.73;78.56;101726.38;251433;1105;116025;-67
2021/03/01 07:57:41;;;;;;;21.55;11.48;;;;;;;3.71;78.77;101717.77;253293;1104;116115;-66
2021/03/01 08:02:44;;;;;;;19.35;13.95;;;;;;;3.67;78.54;101726.94;252137;1105;116079;-64
2021/03/01 08:07:47;;;;;;;22.90;11.43;;;;;;;3.66;78.99;101732.38;253228;1104;115082;-65
2021/03/01 08:12:50;;;;;;;24.10;12.80;;;;;;;3.71;80.53;101732.77;251498;1105;115717;-68
2021/03/01 08:17:53;;;;;;;22.77;13.20;;;;;;;3.65;79.38;101731.55;251714;1105;115184;-66
2021/03/01 08:23:05;;;;;;;21.00;12.70;;;;;;;3.74;78.25;101745.67;251808;1105;115659;-67
2021/03/01 08:28:19;;;;;;;23.73;13.25;;;;;;;3.73;78.65;101750.12;251776;1105;116260;-66
2021/03/01 08:33:26;;;;;;;20.45;12.58;;;;;;;3.75;80.01;101746.50;251623;1105;115923;-63
2021/03/01 08:38:41;;;;;;;26.57;14.00;;;;;;;3.79;79.35;101747.89;251620;1105;115436;-65
2021/03/01 08:43:48;;;;;;;20.57;12.73;;;;;;;3.87;79.51;101759.41;253518;1105;115995;-66
2021/03/01 08:48:56;;;;;;;13.95;8.85;;;;;;;3.95;78.60;101762.18;251838;1105;115277;-66
2021/03/01 08:53:59;;;;;;;15.83;8.23;;;;;;;4.04;78.77;101768.39;253765;1105;115391;-68
2021/03/01 08:59:16;;;;;;;15.58;8.50;;;;;;;4.04;77.84;101768.39;253575;1105;115726;-67
2021/03/01 09:04:19;;;;;;;15.83;10.30;;;;;;;4.04;78.21;101768.39;253101;1105;115163;-67
2021/03/01 09:09:22;;;;;;;16.20;9.10;;;;;;;4.09;77.56;101770.61;253449;1104;116287;-71
2021/03/01 09:14:26;;;;;;;13.45;8.40;;;;;;;4.15;78.15;101785.87;252819;1105;115116;-71
2021/03/01 09:19:33;;;;;;;3.98;2.40;;;;;;;4.04;77.65;101792.97;253531;1105;115619;-70
2021/03/01 09:24:36;;;;;;;20.57;8.75;;;;;;;4.10;78.28;101788.94;254754;1105;115755;-70
2021/03/01 09:29:39;;;;;;;16.55;10.08;;;;;;;4.24;77.47;101793.78;252614;1105;115059;-68
2021/03/01 09:34:42;;;;;;;19.87;8.85;;;;;;;4.32;77.05;101800.95;254734;1104;115861;-68
2021/03/01 09:39:46;;;;;;;11.75;9.18;;;;;;;4.34;76.34;101799.84;252941;1105;115114;-69
2021/03/01 09:44:50;;;;;;;14.30;8.10;;;;;;;4.43;76.72;101805.24;254659;1105;116019;-68
2021/03/01 09:49:54;;;;;;;12.27;7.00;;;;;;;4.45;75.83;101809.41;252252;1105;116087;-66
2021/03/01 09:54:58;;;;;;;12.37;7.40;;;;;;;4.39;76.88;101804.70;253078;1105;115842;-66
2021/03/01 10:00:25;;;;;;;13.32;8.60;;;;;;;4.45;75.79;101806.77;251939;1105;115993;-68
2021/03/01 10:05:33;;;;;;;14.78;9.63;;;;;;;4.50;75.72;101804.53;251938;1105;115361;-68
2021/03/01 10:10:40;;;;;;;17.15;11.35;;;;;;;4.46;76.28;101807.59;253294;1105;115306;-68
2021/03/01 10:15:47;;;;;;;20.92;12.33;;;;;;;4.39;76.88;101804.70;252173;1105;114979;-69
2021/03/01 10:21:05;;;;;;;13.88;8.58;;;;;;;4.34;77.50;101807.76;252496;1103;115152;-68
2021/03/01 10:26:19;;;;;;;16.07;10.45;;;;;;;4.40;77.85;101809.83;252900;1105;115739;-68
2021/03/01 10:31:31;;;;;;;15.40;10.23;;;;;;;4.49;76.90;101807.31;252315;1105;115693;-69
2021/03/01 10:36:48;;;;;;;16.42;11.97;;;;;;;4.58;76.62;101806.45;252553;1105;137971;-70
2021/03/01 10:41:58;;;;;;;12.73;6.95;;;;;;;4.48;76.24;101805.64;251866;1105;116717;-70
2021/03/01 10:47:26;;;;;;;22.45;12.03;;;;;;;4.57;76.42;101804.79;252349;1104;116344;-68
2021/03/01 10:52:30;;;;;;;16.50;11.80;;;;;;;4.62;76.87;101805.16;252028;1105;117445;-68
2021/03/01 10:57:33;;;;;;;17.23;11.53;;;;;;;4.53;76.23;101809.52;251620;1105;117626;-67
2021/03/01 11:02:38;;;;;;;20.27;12.18;;;;;;;4.57;76.88;101820.64;251284;1105;116940;-69
2021/03/01 11:07:42;;;;;;;18.12;10.93;;;;;;;4.59;76.69;101808.09;253108;1105;117561;-67
2021/03/01 11:12:46;;;;;;;19.62;11.80;;;;;;;4.54;76.67;101810.36;253284;1105;116083;-71
2021/03/01 11:17:49;;;;;;;13.65;7.47;;;;;;;4.50;77.08;101811.62;253719;1105;118313;-66
2021/03/01 11:22:53;;;;;;;24.25;12.63;;;;;;;4.44;76.96;101805.09;253327;1104;117173;-67
2021/03/01 11:27:58;;;;;;;17.60;11.12;;;;;;;4.50;76.68;101809.81;253292;1105;118856;-65
2021/03/01 11:33:01;;;;;;;20.77;12.50;;;;;;;4.48;76.84;101816.20;254498;1104;116666;-67
2021/03/01 11:38:05;;;;;;;18.07;11.55;;;;;;;4.45;77.44;101806.77;251586;1105;116706;-65
2021/03/01 11:43:11;;;;;;;28.15;15.15;;;;;;;4.54;77.07;101810.36;254792;1105;118148;-65
2021/03/01 11:48:15;;;;;;;28.20;16.87;;;;;;;4.48;77.19;101805.64;254905;1104;118245;-69
2021/03/01 11:53:18;;;;;;;21.45;10.25;;;;;;;4.32;76.36;101812.35;254564;1104;117105;-66
2021/03/01 11:58:20;;;;;;;34.10;19.87;;;;;;;4.40;76.48;101809.83;253619;1104;116082;-66
2021/03/01 12:03:25;;;;;;;18.48;10.00;;;;;;;4.23;77.66;101807.95;251981;1105;116657;-64
2021/03/01 12:08:27;;;;;;;41.83;21.37;;;;;;;4.23;78.05;101807.12;252920;1104;116044;-66
2021/03/01 12:13:31;;;;;;;40.85;22.67;;;;;;;4.26;77.44;101812.95;251853;1105;116654;-65
2021/03/01 12:18:33;;;;;;;41.53;24.33;;;;;;;4.25;77.30;101803.36;251491;1105;117418;-64
2021/03/01 12:23:37;;;;;;;28.98;15.93;;;;;;;4.16;77.72;101796.29;251593;1105;116658;-65
2021/03/01 12:28:41;;;;;;;47.20;22.37;;;;;;;4.15;76.68;101799.07;252110;1105;116155;-63
2021/03/01 12:33:44;;;;;;;41.27;22.17;;;;;;;4.21;76.88;101801.98;251344;1105;116812;-64
2021/03/01 12:38:48;;;;;;;46.50;28.15;;;;;;;4.21;76.76;101807.26;251836;1105;116502;-66
2021/03/01 12:43:52;;;;;;;45.27;24.53;;;;;;;4.23;76.97;101800.03;251593;1105;116371;-64
2021/03/01 12:48:55;;;;;;;43.90;25.05;;;;;;;4.29;77.25;101801.23;252267;1105;115733;-65
2021/03/01 12:53:58;;;;;;;54.47;30.27;;;;;;;4.27;77.33;101798.77;252865;1105;115348;-63
2021/03/01 12:59:03;;;;;;;49.20;25.93;;;;;;;4.19;77.67;101795.17;252913;1105;116818;-64
2021/03/01 13:04:06;;;;;;;46.85;25.25;;;;;;;4.09;78.13;101789.08;251570;1105;115952;-66
2021/03/01 13:09:10;;;;;;;53.10;32.45;;;;;;;4.14;78.76;101785.05;251739;1105;115045;-63
2021/03/01 13:14:13;;;;;;;51.45;28.07;;;;;;;4.17;76.95;101782.12;253609;1104;116933;-65
2021/03/01 13:19:16;;;;;;;61.70;29.37;;;;;;;4.21;78.41;101783.50;252648;1105;116105;-64
2021/03/01 13:24:20;;;;;;;58.85;28.80;;;;;;;4.20;78.03;101781.00;253188;1104;115707;-66
2021/03/01 13:29:23;;;;;;;52.67;29.42;;;;;;;4.27;78.42;101784.74;252284;1105;116033;-67
2021/03/01 13:34:26;;;;;;;39.05;23.32;;;;;;;4.25;77.59;101784.88;254271;1105;115192;-67
2021/03/01 13:39:31;;;;;;;62.70;29.57;;;;;;;4.28;77.10;101773.20;252788;1105;115411;-68
2021/03/01 13:44:35;;;;;;;54.60;30.95;;;;;;;4.26;78.24;101775.98;254508;1104;115972;-66
2021/03/01 13:49:38;;;;;;;66.62;34.00;;;;;;;4.19;77.87;101774.06;254317;1105;115781;-66
2021/03/01 13:54:42;;;;;;;67.92;35.00;;;;;;;4.27;78.21;101777.66;254400;1105;116194;-64
2021/03/01 13:59:46;;;;;;;36.08;21.25;;;;;;;4.28;77.36;101770.56;251802;1105;115590;-65
2021/03/01 14:04:49;;;;;;;56.93;33.07;;;;;;;4.33;77.35;101768.30;251181;1105;116086;-65
2021/03/01 14:09:52;;;;;;;63.15;32.85;;;;;;;4.33;78.64;101769.13;252780;1105;115114;-69
2021/03/01 14:14:55;;;;;;;46.68;24.65;;;;;;;4.32;77.51;101770.11;251336;1105;173777;-66
2021/03/01 14:19:59;;;;;;;71.80;33.92;;;;;;;4.22;77.50;101764.05;252010;1105;115766;-65
2021/03/01 14:25:04;;;;;;;67.78;34.78;;;;;;;4.24;77.99;101759.45;251438;1105;116794;-65
2021/03/01 14:30:08;;;;;;;50.80;24.43;;;;;;;4.14;77.24;101758.65;252070;1105;117236;-66
2021/03/01 14:35:12;;;;;;;60.40;30.70;;;;;;;4.11;78.63;101756.30;251497;1105;118156;-65
2021/03/01 14:40:16;;;;;;;26.65;15.78;;;;;;;4.12;78.30;101767.68;251486;1105;118175;-66
2021/03/01 14:45:23;;;;;;;51.48;26.93;;;;;;;4.09;78.72;101760.88;252621;1104;115994;-66
2021/03/01 14:50:27;;;;;;;35.80;20.80;;;;;;;4.07;78.97;101741.72;252891;1105;114996;-66
2021/03/01 14:55:30;;;;;;;49.38;31.00;;;;;;;4.09;78.70;101745.05;253058;1104;115911;-66
2021/03/01 15:00:33;;;;;;;57.10;33.03;;;;;;;4.12;78.38;101752.67;252654;1105;116001;-68
2021/03/01 15:05:37;;;;;;;46.00;26.20;;;;;;;4.11;78.47;101744.90;251392;1105;115215;-66
2021/03/01 15:10:42;;;;;;;62.60;30.97;;;;;;;4.06;78.81;101743.52;251812;1105;117232;-62
2021/03/01 15:16:01;;;;;;;47.43;26.57;;;;;;;3.99;78.98;101728.39;254093;1105;116263;-62
2021/03/01 15:21:06;;;;;;;59.18;31.20;;;;;;;3.98;79.21;101729.38;253872;1105;115498;-64
2021/03/01 15:26:11;;;;;;;56.63;33.28;;;;;;;4.04;78.14;101736.72;253967;1105;116273;-64
2021/03/01 15:31:15;;;;;;;56.33;28.17;;;;;;;3.95;79.05;101734.96;252112;1105;115225;-63
2021/03/01 15:36:18;;;;;;;47.30;27.73;;;;;;;3.84;78.80;101743.03;254431;1104;115069;-65
2021/03/01 15:41:21;;;;;;;55.08;29.67;;;;;;;3.85;79.79;101740.25;254021;1105;115636;-64
2021/03/01 15:46:25;;;;;;;50.05;27.35;;;;;;;3.82;79.26;101735.25;254382;1104;115760;-68
2021/03/01 15:51:29;;;;;;;55.08;30.72;;;;;;;3.78;80.26;101727.77;254103;1105;115665;-63
2021/03/01 15:56:32;;;;;;;58.30;30.45;;;;;;;3.74;80.44;101732.48;254509;1104;115764;-64
2021/03/01 16:01:35;;;;;;;59.60;32.35;;;;;;;3.70;80.77;101717.91;254374;1104;115913;-68
2021/03/01 16:06:38;;;;;;;54.20;32.38;;;;;;;3.72;80.61;101719.44;252728;1105;115231;-66
2021/03/01 16:11:43;;;;;;;59.23;33.60;;;;;;;3.68;79.68;101715.41;251562;1105;115588;-64
2021/03/01 16:16:45;;;;;;;58.50;32.60;;;;;;;3.62;80.03;101715.17;253925;1105;115869;-68
2021/03/01 16:21:49;;;;;;;64.25;30.65;;;;;;;3.44;81.28;101707.13;252122;1104;116133;-68
2021/03/01 16:26:52;;;;;;;56.83;33.50;;;;;;;3.45;81.45;101714.06;252057;1105;116069;-65
2021/03/01 16:31:55;;;;;;;40.23;21.65;;;;;;;3.42;81.44;101705.60;251278;1105;117194;-67
2021/03/01 16:36:58;;;;;;;61.20;28.90;;;;;;;3.38;81.68;101716.42;251616;1105;115909;-64
2021/03/01 16:42:03;;;;;;;99.00;48.80;;;;;;;3.32;82.05;101719.64;251177;1104;116009;-65
2021/03/01 16:47:07;;;;;;;70.20;38.40;;;;;;;3.36;82.30;101720.20;251947;1105;116285;-64
2021/03/01 16:52:14;;;;;;;62.25;33.63;;;;;;;3.32;81.08;101711.73;252401;1105;116440;-65
2021/03/01 16:57:25;;;;;;;47.35;27.00;;;;;;;3.25;81.38;101717.69;251688;1105;116199;-64
2021/03/01 17:02:29;;;;;;;66.45;36.33;;;;;;;3.31;82.26;101719.78;251963;1105;117159;-65
2021/03/01 17:07:36;;;;;;;53.15;32.63;;;;;;;3.29;82.07;101716.45;252961;1104;116545;-64
2021/03/01 17:12:59;;;;;;;70.42;37.93;;;;;;;3.35;82.56;101736.98;251235;1105;118250;-66
2021/03/01 17:18:04;;;;;;;54.85;27.58;;;;;;;3.21;82.00;101735.58;252319;1105;115910;-64
2021/03/01 17:23:14;;;;;;;64.62;33.95;;;;;;;3.24;82.25;101742.37;253374;1104;117088;-66
2021/03/01 17:28:20;;;;;;;57.27;32.05;;;;;;;3.21;81.21;101740.85;252281;1105;115882;-65
2021/03/01 17:33:25;;;;;;;63.73;34.38;;;;;;;3.19;81.72;101736.69;253629;1105;115520;-64
2021/03/01 17:38:29;;;;;;;65.57;37.08;;;;;;;3.15;82.52;101730.86;253012;1105;115753;-66
2021/03/01 17:43:32;;;;;;;70.20;33.85;;;;;;;3.20;82.02;101722.54;254633;1104;115494;-66
2021/03/01 17:48:40;;;;;;;56.45;31.25;;;;;;;3.22;81.44;101720.60;254244;1105;116233;-66
2021/03/01 17:53:57;;;;;;;53.68;30.57;;;;;;;3.22;81.52;101731.14;254540;1105;115638;-66
2021/03/01 17:59:04;;;;;;;68.97;36.30;;;;;;;3.20;82.42;101727.81;254617;1104;115591;-64
2021/03/01 18:04:10;;;;;;;73.37;36.10;;;;;;;3.16;80.99;101726.42;252893;1105;114930;-66
2021/03/01 18:09:17;;;;;;;69.75;33.83;;;;;;;3.25;82.62;101731.70;251459;1105;116606;-65
2021/03/01 18:14:22;;;;;;;;;;;;;;;3.24;82.04;101729.20;253362;1104;116710;-67
2021/03/01 18:19:28;;;;;;;63.60;36.53;;;;;;;3.17;81.20;101728.92;254046;1105;104210;-65
2021/03/01 18:24:34;;;;;;;55.43;32.88;;;;;;;3.22;81.47;101728.51;253433;1105;116369;-67
2021/03/01 18:29:39;;;;;;;65.65;36.33;;;;;;;3.19;82.06;101729.61;254216;1105;115578;-67
2021/03/01 18:35:03;;;;;;;55.30;32.30;;;;;;;3.13;82.34;101734.59;251589;1105;115779;-64
2021/03/01 18:40:09;;;;;;;67.80;36.70;;;;;;;3.13;81.98;101724.05;251638;1105;115875;-64
2021/03/01 18:45:19;;;;;;;35.35;21.17;;;;;;;3.12;82.53;101723.22;251467;1105;115684;-64
2021/03/01 18:50:24;;;;;;;57.97;30.83;;;;;;;3.13;81.77;101724.05;252795;1104;115413;-64
2021/03/01 18:55:28;;;;;;;59.30;34.23;;;;;;;3.09;83.10;101730.56;252417;1105;116153;-65
2021/03/01 19:00:36;;;;;;;65.97;36.13;;;;;;;3.07;82.68;101732.50;253013;1105;115839;-66
2021/03/01 19:05:42;;;;;;;54.88;31.95;;;;;;;3.17;81.91;101743.89;252287;1105;116001;-65
2021/03/01 19:10:49;;;;;;;27.62;14.00;;;;;;;3.12;83.46;101743.47;251826;1105;116027;-64
2021/03/01 19:15:52;;;;;;;55.35;34.00;;;;;;;3.12;83.53;101735.56;252788;1104;115687;-68
2021/03/01 19:20:56;;;;;;;63.83;33.30;;;;;;;3.13;83.02;101747.77;253316;1105;115731;-65
2021/03/01 19:25:59;;;;;;;60.52;31.85;;;;;;;3.14;82.22;101742.36;251842;1105;115011;-65
2021/03/01 19:31:03;;;;;;;54.20;28.30;;;;;;;3.13;83.46;101742.50;253094;1105;116188;-66
2021/03/01 19:36:07;;;;;;;24.00;13.93;;;;;;;3.03;82.41;101745.14;253964;1105;115342;-66
2021/03/01 19:41:11;;;;;;;66.20;32.65;;;;;;;3.04;82.91;101741.55;253587;1105;115978;-68
2021/03/01 19:46:14;;;;;;;64.00;36.25;;;;;;;3.08;83.49;101731.53;254467;1104;115928;-64
2021/03/01 19:51:17;;;;;;;62.43;31.85;;;;;;;3.06;82.68;101729.03;254481;1105;115237;-67
2021/03/01 19:56:22;;;;;;;53.10;31.02;;;;;;;3.03;82.60;101722.27;254597;1105;115141;-66
2021/03/01 20:01:26;;;;;;;50.73;30.15;;;;;;;3.00;82.94;101725.17;254515;1104;115733;-64
2021/03/01 20:06:31;;;;;;;52.85;29.65;;;;;;;3.08;82.55;101721.00;254540;1104;137238;-67
2021/03/01 20:11:36;;;;;;;47.10;27.55;;;;;;;3.03;82.84;101719.63;254545;1105;116801;-64
2021/03/01 20:16:40;;;;;;;46.28;25.77;;;;;;;3.04;83.79;101721.30;254287;1105;114974;-63
2021/03/01 20:21:43;;;;;;;60.38;32.13;;;;;;;3.14;83.13;101717.81;253090;1105;115794;-64
2021/03/01 20:26:49;;;;;;;58.55;28.65;;;;;;;3.17;82.67;101725.45;253558;1104;117444;-64
2021/03/01 20:31:53;;;;;;;19.37;11.88;;;;;;;3.06;82.80;101722.97;253784;1104;115774;-66
2021/03/01 20:36:56;;;;;;;53.38;27.15;;;;;;;3.02;82.19;101725.88;252102;1104;116055;-66
2021/03/01 20:41:59;;;;;;;63.65;32.23;;;;;;;3.03;82.73;101717.00;252893;1105;116824;-65
2021/03/01 20:47:03;;;;;;;66.28;31.85;;;;;;;3.04;82.62;101718.66;252494;1105;115838;-62
2021/03/01 20:52:07;;;;;;;52.43;30.55;;;;;;;2.94;82.78;101712.55;252810;1105;115923;-61
2021/03/01 20:57:10;;;;;;;51.00;27.17;;;;;;;2.97;82.76;101712.27;252495;1105;115615;-65
2021/03/01 21:02:15;;;;;;;61.92;29.55;;;;;;;2.90;83.96;101719.05;251747;1105;116843;-63
2021/03/01 21:07:20;;;;;;;39.35;24.10;;;;;;;2.86;83.92;101711.55;252453;1105;117392;-61
2021/03/01 21:12:24;;;;;;;62.13;31.37;;;;;;;2.90;83.12;101712.95;252535;1105;117602;-62
2021/03/01 21:17:29;;;;;;;51.92;27.93;;;;;;;2.94;83.85;101711.70;251358;1105;118004;-62
2021/03/01 21:23:00;;;;;;;56.65;29.15;;;;;;;2.96;83.13;101709.77;252461;1105;118311;-65
2021/03/01 21:28:04;;;;;;;24.45;13.93;;;;;;;2.91;83.82;101718.08;251902;1105;116564;-64
2021/03/01 21:33:11;;;;;;;46.85;30.40;;;;;;;2.88;83.33;101720.15;253458;1105;115954;-64
2021/03/01 21:38:15;;;;;;;17.73;10.60;;;;;;;2.87;83.21;101715.85;251250;1105;118274;-64
2021/03/01 21:43:21;;;;;;;43.30;21.68;;;;;;;2.82;83.71;101718.89;251547;1105;117800;-62
2021/03/01 21:48:29;;;;;;;45.38;26.00;;;;;;;2.78;84.16;101706.95;252083;1105;116782;-63
2021/03/01 21:53:45;;;;;;;49.87;27.33;;;;;;;2.82;84.11;101710.98;252490;1105;117286;-65
2021/03/01 21:58:50;;;;;;;44.93;23.65;;;;;;;2.80;84.02;101710.29;252861;1105;116655;-66
2021/03/01 22:03:53;;;;;;;48.73;25.88;;;;;;;2.80;84.20;101714.72;254635;1104;114984;-65
2021/03/01 22:09:06;;;;;;;54.65;27.82;;;;;;;2.86;82.61;101711.55;254677;1104;115094;-64
2021/03/01 22:14:09;;;;;;;47.62;26.10;;;;;;;2.90;82.25;101710.31;253991;1105;115414;-63
2021/03/01 22:19:13;;;;;;;46.48;24.75;;;;;;;2.83;82.36;101711.82;254103;1104;115946;-66
2021/03/01 22:24:19;;;;;;;34.30;20.80;;;;;;;2.75;83.58;101707.26;252732;1104;119069;-63
2021/03/01 22:29:26;;;;;;;48.63;28.10;;;;;;;2.72;83.70;101712.80;251404;1105;115819;-68
2021/03/01 22:34:30;;;;;;;;;;;;;;;2.74;82.73;101707.39;251975;1105;117358;-67
2021/03/01 22:39:35;;;;;;;52.15;26.57;;;;;;;2.67;83.56;101710.56;254328;1105;104145;-64
2021/03/01 22:44:46;;;;;;;46.93;24.03;;;;;;;2.69;84.29;101713.06;252807;1105;116104;-62
2021/03/01 22:49:53;;;;;;;48.20;25.43;;;;;;;2.72;84.15;101710.16;251722;1105;116279;-65
2021/03/01 22:55:00;;;;;;;33.92;17.20;;;;;;;2.66;82.98;101710.69;251521;1105;116837;-67
2021/03/01 23:00:06;;;;;;;57.33;30.85;;;;;;;2.63;83.33;101719.69;252001;1105;116623;-67